sensor_id;sensor_type;location;lat;lon;timestamp;pressure;altitude;pressure_sealevel;temperature;humidity
66090;BME280;53113;45.602;11.904;2022-09-09T00:03:43;100996.01;;;21.91;66.77
66090;BME280;53113;45.602;11.904;2022-09-09T00:06:42;100993.02;;;21.91;66.77
66090;BME280;53113;45.602;11.904;2022-09-09T00:09:17;100985.52;;;21.87;66.68
66090;BME280;53113;45.602;11.904;2022-09-09T00:16:54;100978.95;;;21.75;66.86
66090;BME280;53113;45.602;11.904;2022-09-09T00:22:08;100987.94;;;21.73;66.94
66090;BME280;53113;45.602;11.904;2022-09-09T00:24:45;100997.64;;;21.73;67.00
66090;BME280;53113;45.602;11.904;2022-09-09T00:30:20;101004.84;;;21.69;67.08
66090;BME280;53113;45.602;11.904;2022-09-09T00:32:58;101008.15;;;21.66;67.23
66090;BME280;53113;45.602;11.904;2022-09-09T00:35:31;101011.15;;;21.61;67.36
66090;BME280;53113;45.602;11.904;2022-09-09T00:38:35;101009.42;;;21.60;67.45
66090;BME280;53113;45.602;11.904;2022-09-09T00:41:14;101003.30;;;21.62;67.56
66090;BME280;53113;45.602;11.904;2022-09-09T00:43:41;101002.04;;;21.62;67.46
66090;BME280;53113;45.602;11.904;2022-09-09T00:52:14;101001.27;;;21.53;67.76
66090;BME280;53113;45.602;11.904;2022-09-09T00:54:57;100998.55;;;21.49;67.97
66090;BME280;53113;45.602;11.904;2022-09-09T00:57:33;101002.48;;;21.46;68.15
66090;BME280;53113;45.602;11.904;2022-09-09T01:05:30;100998.00;;;21.46;68.21
66090;BME280;53113;45.602;11.904;2022-09-09T01:08:01;101005.29;;;21.44;68.21
66090;BME280;53113;45.602;11.904;2022-09-09T01:13:21;101016.73;;;21.38;68.26
66090;BME280;53113;45.602;11.904;2022-09-09T01:15:49;101020.25;;;21.37;68.32
66090;BME280;53113;45.602;11.904;2022-09-09T01:18:20;101019.36;;;21.38;68.01
66090;BME280;53113;45.602;11.904;2022-09-09T01:26:12;101012.31;;;21.34;68.18
66090;BME280;53113;45.602;11.904;2022-09-09T01:28:43;101012.50;;;21.31;68.13
66090;BME280;53113;45.602;11.904;2022-09-09T01:31:15;101009.78;;;21.28;68.30
66090;BME280;53113;45.602;11.904;2022-09-09T01:33:42;101009.84;;;21.26;68.48
66090;BME280;53113;45.602;11.904;2022-09-09T01:36:20;101006.08;;;21.28;68.41
66090;BME280;53113;45.602;11.904;2022-09-09T01:38:47;101003.52;;;21.28;68.47
66090;BME280;53113;45.602;11.904;2022-09-09T01:41:13;101006.27;;;21.26;68.60
66090;BME280;53113;45.602;11.904;2022-09-09T01:43:39;101001.52;;;21.24;68.64
66090;BME280;53113;45.602;11.904;2022-09-09T01:46:05;100995.35;;;21.20;68.89
66090;BME280;53113;45.602;11.904;2022-09-09T01:48:31;100992.64;;;21.17;68.89
66090;BME280;53113;45.602;11.904;2022-09-09T01:50:57;100993.92;;;21.17;69.11
66090;BME280;53113;45.602;11.904;2022-09-09T01:53:23;100993.98;;;21.18;69.18
66090;BME280;53113;45.602;11.904;2022-09-09T01:56:00;100993.30;;;21.20;69.27
66090;BME280;53113;45.602;11.904;2022-09-09T01:58:41;100992.98;;;21.18;69.28
66090;BME280;53113;45.602;11.904;2022-09-09T02:03:56;100993.61;;;21.14;69.49
66090;BME280;53113;45.602;11.904;2022-09-09T02:06:30;100997.73;;;21.14;69.53
66090;BME280;53113;45.602;11.904;2022-09-09T02:09:02;100996.69;;;21.16;69.54
66090;BME280;53113;45.602;11.904;2022-09-09T02:11:30;100988.64;;;21.16;69.62
66090;BME280;53113;45.602;11.904;2022-09-09T02:14:18;100986.98;;;21.16;69.64
66090;BME280;53113;45.602;11.904;2022-09-09T02:16:50;100987.19;;;21.15;69.65
66090;BME280;53113;45.602;11.904;2022-09-09T02:19:25;100987.48;;;21.14;69.73
66090;BME280;53113;45.602;11.904;2022-09-09T02:21:55;100986.59;;;21.14;69.84
66090;BME280;53113;45.602;11.904;2022-09-09T02:24:21;100989.17;;;21.16;69.75
66090;BME280;53113;45.602;11.904;2022-09-09T02:26:51;100987.51;;;21.18;69.84
66090;BME280;53113;45.602;11.904;2022-09-09T02:29:27;100981.06;;;21.18;69.73
66090;BME280;53113;45.602;11.904;2022-09-09T02:31:57;100977.77;;;21.17;69.83
66090;BME280;53113;45.602;11.904;2022-09-09T02:34:25;100971.60;;;21.16;69.83
66090;BME280;53113;45.602;11.904;2022-09-09T02:36:54;100969.22;;;21.16;69.78
66090;BME280;53113;45.602;11.904;2022-09-09T02:39:20;100970.51;;;21.17;69.70
66090;BME280;53113;45.602;11.904;2022-09-09T02:41:46;100969.08;;;21.19;69.58
66090;BME280;53113;45.602;11.904;2022-09-09T02:44:17;100965.94;;;21.18;69.53
66090;BME280;53113;45.602;11.904;2022-09-09T02:52:15;100961.95;;;21.14;69.68
66090;BME280;53113;45.602;11.904;2022-09-09T02:54:44;100963.65;;;21.13;69.73
66090;BME280;53113;45.602;11.904;2022-09-09T02:57:22;100963.27;;;21.15;69.66
66090;BME280;53113;45.602;11.904;2022-09-09T02:59:49;100960.31;;;21.17;69.60
66090;BME280;53113;45.602;11.904;2022-09-09T03:02:17;100968.34;;;21.18;69.61
66090;BME280;53113;45.602;11.904;2022-09-09T03:04:44;100967.03;;;21.16;69.59
66090;BME280;53113;45.602;11.904;2022-09-09T03:07:10;100963.01;;;21.14;69.56
66090;BME280;53113;45.602;11.904;2022-09-09T03:09:36;100961.56;;;21.11;69.69
66090;BME280;53113;45.602;11.904;2022-09-09T03:12:02;100965.89;;;21.11;69.56
66090;BME280;53113;45.602;11.904;2022-09-09T03:14:29;100964.84;;;21.12;69.65
66090;BME280;53113;45.602;11.904;2022-09-09T03:16:56;100964.95;;;21.14;69.46
66090;BME280;53113;45.602;11.904;2022-09-09T03:19:23;100962.87;;;21.13;69.40
66090;BME280;53113;45.602;11.904;2022-09-09T03:21:50;100962.27;;;21.12;69.33
66090;BME280;53113;45.602;11.904;2022-09-09T03:24:16;100958.98;;;21.11;69.31
66090;BME280;53113;45.602;11.904;2022-09-09T03:26:42;100956.38;;;21.09;69.32
66090;BME280;53113;45.602;11.904;2022-09-09T03:29:11;100955.63;;;21.09;69.34
66090;BME280;53113;45.602;11.904;2022-09-09T03:31:38;100949.22;;;21.10;69.13
66090;BME280;53113;45.602;11.904;2022-09-09T03:34:05;100942.77;;;21.10;69.05
66090;BME280;53113;45.602;11.904;2022-09-09T03:36:31;100943.43;;;21.09;69.06
66090;BME280;53113;45.602;11.904;2022-09-09T03:38:57;100942.38;;;21.09;69.04
66090;BME280;53113;45.602;11.904;2022-09-09T03:41:24;100940.04;;;21.06;69.12
66090;BME280;53113;45.602;11.904;2022-09-09T03:43:53;100944.95;;;21.04;69.06
66090;BME280;53113;45.602;11.904;2022-09-09T03:46:21;100937.68;;;21.00;69.12
66090;BME280;53113;45.602;11.904;2022-09-09T03:48:47;100931.73;;;20.98;69.05
66090;BME280;53113;45.602;11.904;2022-09-09T03:51:13;100930.33;;;20.99;69.00
66090;BME280;53113;45.602;11.904;2022-09-09T03:53:38;100929.96;;;20.99;68.97
66090;BME280;53113;45.602;11.904;2022-09-09T03:56:05;100922.47;;;20.99;69.00
66090;BME280;53113;45.602;11.904;2022-09-09T03:58:36;100927.95;;;20.97;68.89
66090;BME280;53113;45.602;11.904;2022-09-09T04:01:07;100929.02;;;20.94;68.90
66090;BME280;53113;45.602;11.904;2022-09-09T04:03:39;100923.75;;;20.90;68.96
66090;BME280;53113;45.602;11.904;2022-09-09T04:06:07;100924.33;;;20.89;69.11
66090;BME280;53113;45.602;11.904;2022-09-09T04:08:34;100922.30;;;20.90;68.95
66090;BME280;53113;45.602;11.904;2022-09-09T04:11:02;100921.96;;;20.90;69.00
66090;BME280;53113;45.602;11.904;2022-09-09T04:13:30;100925.56;;;20.88;68.96
66090;BME280;53113;45.602;11.904;2022-09-09T04:15:58;100926.24;;;20.85;68.92
66090;BME280;53113;45.602;11.904;2022-09-09T04:18:25;100931.84;;;20.83;69.04
66090;BME280;53113;45.602;11.904;2022-09-09T04:20:52;100931.48;;;20.78;69.13
66090;BME280;53113;45.602;11.904;2022-09-09T04:23:20;100929.13;;;20.75;69.01
66090;BME280;53113;45.602;11.904;2022-09-09T04:25:47;100923.82;;;20.73;69.00
66090;BME280;53113;45.602;11.904;2022-09-09T04:28:15;100919.56;;;20.74;69.01
66090;BME280;53113;45.602;11.904;2022-09-09T04:30:41;100915.73;;;20.73;68.89
66090;BME280;53113;45.602;11.904;2022-09-09T04:33:08;100921.50;;;20.72;69.07
66090;BME280;53113;45.602;11.904;2022-09-09T04:35:35;100919.46;;;20.69;69.20
66090;BME280;53113;45.602;11.904;2022-09-09T04:38:02;100917.35;;;20.66;69.38
66090;BME280;53113;45.602;11.904;2022-09-09T04:40:29;100917.61;;;20.62;69.43
66090;BME280;53113;45.602;11.904;2022-09-09T04:42:57;100913.94;;;20.61;69.56
66090;BME280;53113;45.602;11.904;2022-09-09T04:45:23;100914.92;;;20.62;69.51
66090;BME280;53113;45.602;11.904;2022-09-09T04:47:49;100917.58;;;20.64;69.60
66090;BME280;53113;45.602;11.904;2022-09-09T04:50:14;100918.79;;;20.62;69.63
66090;BME280;53113;45.602;11.904;2022-09-09T04:52:41;100919.60;;;20.62;69.60
66090;BME280;53113;45.602;11.904;2022-09-09T04:55:07;100915.84;;;20.60;69.66
66090;BME280;53113;45.602;11.904;2022-09-09T04:57:34;100912.29;;;20.57;69.67
66090;BME280;53113;45.602;11.904;2022-09-09T05:00:00;100912.87;;;20.59;69.82
66090;BME280;53113;45.602;11.904;2022-09-09T05:02:27;100912.48;;;20.61;69.86
66090;BME280;53113;45.602;11.904;2022-09-09T05:04:53;100913.76;;;20.64;69.95
66090;BME280;53113;45.602;11.904;2022-09-09T05:07:19;100916.42;;;20.64;69.81
66090;BME280;53113;45.602;11.904;2022-09-09T05:09:45;100918.30;;;20.65;70.02
66090;BME280;53113;45.602;11.904;2022-09-09T05:12:12;100918.60;;;20.65;70.07
66090;BME280;53113;45.602;11.904;2022-09-09T05:14:38;100913.75;;;20.66;70.18
66090;BME280;53113;45.602;11.904;2022-09-09T05:17:04;100919.83;;;20.69;70.34
66090;BME280;53113;45.602;11.904;2022-09-09T05:19:30;100922.87;;;20.75;70.44
66090;BME280;53113;45.602;11.904;2022-09-09T05:21:56;100923.34;;;20.81;70.46
66090;BME280;53113;45.602;11.904;2022-09-09T05:24:22;100927.63;;;20.86;70.60
66090;BME280;53113;45.602;11.904;2022-09-09T05:26:51;100931.09;;;20.91;70.65
66090;BME280;53113;45.602;11.904;2022-09-09T05:29:17;100932.69;;;20.95;70.87
66090;BME280;53113;45.602;11.904;2022-09-09T05:31:45;100937.06;;;20.99;70.84
66090;BME280;53113;45.602;11.904;2022-09-09T05:34:11;100934.64;;;21.06;70.87
66090;BME280;53113;45.602;11.904;2022-09-09T05:36:37;100939.60;;;21.15;71.19
66090;BME280;53113;45.602;11.904;2022-09-09T05:39:03;100943.27;;;21.26;71.01
66090;BME280;53113;45.602;11.904;2022-09-09T05:41:29;100953.35;;;21.35;71.17
66090;BME280;53113;45.602;11.904;2022-09-09T05:43:55;100949.17;;;21.41;71.03
66090;BME280;53113;45.602;11.904;2022-09-09T05:46:23;100948.07;;;21.51;71.14
66090;BME280;53113;45.602;11.904;2022-09-09T05:48:51;100953.08;;;21.61;71.13
66090;BME280;53113;45.602;11.904;2022-09-09T05:51:23;100952.55;;;21.72;71.02
66090;BME280;53113;45.602;11.904;2022-09-09T05:53:50;100949.70;;;21.84;70.86
66090;BME280;53113;45.602;11.904;2022-09-09T05:56:22;100947.39;;;21.93;70.69
66090;BME280;53113;45.602;11.904;2022-09-09T05:58:51;100948.20;;;22.01;70.57
66090;BME280;53113;45.602;11.904;2022-09-09T06:01:24;100953.81;;;22.06;70.28
66090;BME280;53113;45.602;11.904;2022-09-09T06:03:51;100956.80;;;22.12;70.07
66090;BME280;53113;45.602;11.904;2022-09-09T06:06:19;100957.27;;;22.17;69.96
66090;BME280;53113;45.602;11.904;2022-09-09T06:08:50;100958.89;;;22.26;69.77
66090;BME280;53113;45.602;11.904;2022-09-09T06:11:18;100957.38;;;22.34;69.61
66090;BME280;53113;45.602;11.904;2022-09-09T06:13:45;100952.48;;;22.41;69.65
66090;BME280;53113;45.602;11.904;2022-09-09T06:16:15;100948.81;;;22.51;69.78
66090;BME280;53113;45.602;11.904;2022-09-09T06:18:42;100945.17;;;22.63;69.80
66090;BME280;53113;45.602;11.904;2022-09-09T06:21:16;100944.11;;;22.75;69.60
66090;BME280;53113;45.602;11.904;2022-09-09T06:23:43;100950.13;;;22.93;69.45
66090;BME280;53113;45.602;11.904;2022-09-09T06:26:22;100945.35;;;23.07;69.09
66090;BME280;53113;45.602;11.904;2022-09-09T06:28:50;100943.38;;;23.22;68.86
66090;BME280;53113;45.602;11.904;2022-09-09T06:31:20;100937.66;;;23.40;68.84
66090;BME280;53113;45.602;11.904;2022-09-09T06:33:47;100938.46;;;23.62;68.77
66090;BME280;53113;45.602;11.904;2022-09-09T06:36:19;100939.80;;;23.83;68.37
66090;BME280;53113;45.602;11.904;2022-09-09T06:38:46;100939.59;;;24.08;68.00
66090;BME280;53113;45.602;11.904;2022-09-09T06:41:13;100941.59;;;24.30;67.43
66090;BME280;53113;45.602;11.904;2022-09-09T06:43:40;100942.05;;;24.55;66.88
66090;BME280;53113;45.602;11.904;2022-09-09T06:46:21;100936.88;;;24.80;66.62
66090;BME280;53113;45.602;11.904;2022-09-09T06:48:47;100938.36;;;25.11;66.05
66090;BME280;53113;45.602;11.904;2022-09-09T06:51:22;100938.23;;;25.40;65.71
66090;BME280;53113;45.602;11.904;2022-09-09T06:53:50;100939.60;;;25.68;65.09
66090;BME280;53113;45.602;11.904;2022-09-09T06:58:42;100933.35;;;26.15;64.05
66090;BME280;53113;45.602;11.904;2022-09-09T07:01:13;100923.59;;;26.29;63.26
66090;BME280;53113;45.602;11.904;2022-09-09T07:03:40;100920.88;;;26.37;62.47
66090;BME280;53113;45.602;11.904;2022-09-09T07:06:08;100921.96;;;26.38;62.04
66090;BME280;53113;45.602;11.904;2022-09-09T07:08:34;100923.20;;;26.39;61.82
66090;BME280;53113;45.602;11.904;2022-09-09T07:11:04;100923.67;;;26.38;61.73
66090;BME280;53113;45.602;11.904;2022-09-09T07:13:31;100929.00;;;26.39;61.55
66090;BME280;53113;45.602;11.904;2022-09-09T07:16:06;100929.85;;;26.42;61.67
66090;BME280;53113;45.602;11.904;2022-09-09T07:18:32;100930.10;;;26.44;61.52
66090;BME280;53113;45.602;11.904;2022-09-09T07:21:00;100935.64;;;26.44;61.05
66090;BME280;53113;45.602;11.904;2022-09-09T07:23:28;100934.48;;;26.38;60.56
66090;BME280;53113;45.602;11.904;2022-09-09T07:25:54;100934.21;;;26.32;60.42
66090;BME280;53113;45.602;11.904;2022-09-09T07:28:20;100935.70;;;26.25;60.37
66090;BME280;53113;45.602;11.904;2022-09-09T07:30:55;100928.49;;;26.15;60.29
66090;BME280;53113;45.602;11.904;2022-09-09T07:33:22;100933.11;;;26.09;60.42
66090;BME280;53113;45.602;11.904;2022-09-09T07:35:48;100930.24;;;26.01;60.42
66090;BME280;53113;45.602;11.904;2022-09-09T07:38:14;100931.73;;;25.95;60.29
66090;BME280;53113;45.602;11.904;2022-09-09T07:40:40;100935.80;;;25.87;60.33
66090;BME280;53113;45.602;11.904;2022-09-09T07:43:06;100943.73;;;25.83;60.65
66090;BME280;53113;45.602;11.904;2022-09-09T07:45:33;100937.09;;;25.81;60.88
66090;BME280;53113;45.602;11.904;2022-09-09T07:48:00;100940.05;;;25.86;61.25
66090;BME280;53113;45.602;11.904;2022-09-09T07:50:26;100931.89;;;25.93;61.32
66090;BME280;53113;45.602;11.904;2022-09-09T07:52:52;100930.55;;;25.99;61.22
66090;BME280;53113;45.602;11.904;2022-09-09T07:55:20;100932.29;;;26.07;61.31
66090;BME280;53113;45.602;11.904;2022-09-09T07:57:46;100935.36;;;26.15;60.90
66090;BME280;53113;45.602;11.904;2022-09-09T08:00:12;100936.77;;;26.22;61.01
66090;BME280;53113;45.602;11.904;2022-09-09T08:02:40;100927.23;;;26.26;60.78
66090;BME280;53113;45.602;11.904;2022-09-09T08:05:06;100931.77;;;26.26;60.40
66090;BME280;53113;45.602;11.904;2022-09-09T08:07:32;100930.34;;;26.25;59.97
66090;BME280;53113;45.602;11.904;2022-09-09T08:09:58;100937.95;;;26.23;59.82
66090;BME280;53113;45.602;11.904;2022-09-09T08:12:27;100939.48;;;26.18;59.59
66090;BME280;53113;45.602;11.904;2022-09-09T08:14:52;100942.77;;;26.13;59.44
66090;BME280;53113;45.602;11.904;2022-09-09T08:17:19;100941.74;;;26.07;59.56
66090;BME280;53113;45.602;11.904;2022-09-09T08:19:45;100944.70;;;26.03;59.76
66090;BME280;53113;45.602;11.904;2022-09-09T08:22:11;100949.20;;;26.00;59.74
66090;BME280;53113;45.602;11.904;2022-09-09T08:24:36;100950.92;;;25.99;59.95
66090;BME280;53113;45.602;11.904;2022-09-09T08:27:02;100945.86;;;25.97;59.67
66090;BME280;53113;45.602;11.904;2022-09-09T08:29:27;100945.73;;;25.96;59.76
66090;BME280;53113;45.602;11.904;2022-09-09T08:31:56;100958.77;;;25.94;59.67
66090;BME280;53113;45.602;11.904;2022-09-09T08:34:23;100966.85;;;25.92;59.20
66090;BME280;53113;45.602;11.904;2022-09-09T08:36:52;100973.36;;;25.88;58.86
66090;BME280;53113;45.602;11.904;2022-09-09T08:39:20;100971.55;;;25.82;58.80
66090;BME280;53113;45.602;11.904;2022-09-09T08:42:08;100977.21;;;25.78;58.79
66090;BME280;53113;45.602;11.904;2022-09-09T08:48:03;100983.45;;;25.70;58.86
66090;BME280;53113;45.602;11.904;2022-09-09T08:50:37;100978.61;;;25.66;58.73
66090;BME280;53113;45.602;11.904;2022-09-09T08:55:59;100980.98;;;25.57;58.82
66090;BME280;53113;45.602;11.904;2022-09-09T08:58:31;100983.36;;;25.55;59.12
66090;BME280;53113;45.602;11.904;2022-09-09T09:12:00;100964.55;;;26.52;58.65
66090;BME280;53113;45.602;11.904;2022-09-09T09:14:33;100966.14;;;26.68;58.11
66090;BME280;53113;45.602;11.904;2022-09-09T09:17:00;100961.66;;;26.84;58.12
66090;BME280;53113;45.602;11.904;2022-09-09T09:19:28;100956.63;;;27.05;57.97
66090;BME280;53113;45.602;11.904;2022-09-09T09:21:59;100949.98;;;27.30;57.60
66090;BME280;53113;45.602;11.904;2022-09-09T09:29:49;100950.92;;;28.16;56.07
66090;BME280;53113;45.602;11.904;2022-09-09T09:32:18;100946.50;;;28.44;55.65
66090;BME280;53113;45.602;11.904;2022-09-09T09:34:55;100936.80;;;28.69;54.72
66090;BME280;53113;45.602;11.904;2022-09-09T09:37:32;100934.67;;;28.98;54.33
66090;BME280;53113;45.602;11.904;2022-09-09T09:40:11;100940.17;;;29.28;53.94
66090;BME280;53113;45.602;11.904;2022-09-09T09:42:53;100942.67;;;29.59;53.56
66090;BME280;53113;45.602;11.904;2022-09-09T09:45:34;100943.80;;;29.88;52.70
66090;BME280;53113;45.602;11.904;2022-09-09T09:48:05;100949.73;;;30.14;52.32
66090;BME280;53113;45.602;11.904;2022-09-09T09:50:32;100949.70;;;30.32;51.84
66090;BME280;53113;45.602;11.904;2022-09-09T09:53:04;100955.06;;;30.46;51.37
66090;BME280;53113;45.602;11.904;2022-09-09T09:55:31;100958.05;;;30.59;51.03
66090;BME280;53113;45.602;11.904;2022-09-09T09:58:13;100956.42;;;30.74;50.65
66090;BME280;53113;45.602;11.904;2022-09-09T10:00:50;100958.23;;;30.90;50.07
66090;BME280;53113;45.602;11.904;2022-09-09T10:05:52;100943.30;;;31.20;49.39
66090;BME280;53113;45.602;11.904;2022-09-09T10:08:18;100939.11;;;31.35;49.16
66090;BME280;53113;45.602;11.904;2022-09-09T10:14:21;100925.27;;;31.60;48.08
66090;BME280;53113;45.602;11.904;2022-09-09T10:22:28;100922.48;;;31.99;47.42
66090;BME280;53113;45.602;11.904;2022-09-09T10:33:13;100917.38;;;32.16;45.44
66090;BME280;53113;45.602;11.904;2022-09-09T10:36:08;100917.45;;;32.05;44.96
66090;BME280;53113;45.602;11.904;2022-09-09T10:38:40;100914.42;;;31.95;45.27
66090;BME280;53113;45.602;11.904;2022-09-09T10:52:15;100902.27;;;32.17;45.38
66090;BME280;53113;45.602;11.904;2022-09-09T10:57:33;100899.91;;;32.44;44.87
66090;BME280;53113;45.602;11.904;2022-09-09T11:00:13;100905.01;;;32.54;44.50
66090;BME280;53113;45.602;11.904;2022-09-09T11:02:41;100907.71;;;32.61;44.07
66090;BME280;53113;45.602;11.904;2022-09-09T11:08:02;100908.23;;;32.69;43.64
66090;BME280;53113;45.602;11.904;2022-09-09T11:10:44;100914.06;;;32.69;43.41
66090;BME280;53113;45.602;11.904;2022-09-09T11:16:27;100910.77;;;32.54;42.88
66090;BME280;53113;45.602;11.904;2022-09-09T11:19:00;100909.27;;;32.39;42.57
66090;BME280;53113;45.602;11.904;2022-09-09T11:21:31;100915.77;;;32.28;42.82
66090;BME280;53113;45.602;11.904;2022-09-09T11:24:10;100921.61;;;32.10;42.91
66090;BME280;53113;45.602;11.904;2022-09-09T11:26:43;100916.88;;;31.96;43.24
66090;BME280;53113;45.602;11.904;2022-09-09T11:32:15;100904.92;;;31.65;43.77
66090;BME280;53113;45.602;11.904;2022-09-09T11:35:17;100900.54;;;31.55;44.42
66090;BME280;53113;45.602;11.904;2022-09-09T11:37:59;100903.52;;;31.49;44.35
66090;BME280;53113;45.602;11.904;2022-09-09T11:40:28;100908.31;;;31.43;44.89
66090;BME280;53113;45.602;11.904;2022-09-09T11:43:05;100913.11;;;31.39;44.88
66090;BME280;53113;45.602;11.904;2022-09-09T11:45:35;100900.77;;;31.33;44.94
66090;BME280;53113;45.602;11.904;2022-09-09T11:48:03;100898.19;;;31.22;44.75
66090;BME280;53113;45.602;11.904;2022-09-09T11:50:33;100892.65;;;31.09;44.78
66090;BME280;53113;45.602;11.904;2022-09-09T11:53:19;100893.86;;;30.94;44.84
66090;BME280;53113;45.602;11.904;2022-09-09T11:56:07;100894.73;;;30.79;45.17
66090;BME280;53113;45.602;11.904;2022-09-09T11:58:43;100893.97;;;30.64;45.17
66090;BME280;53113;45.602;11.904;2022-09-09T12:01:40;100885.49;;;30.51;45.31
66090;BME280;53113;45.602;11.904;2022-09-09T12:09:23;100891.39;;;30.10;46.41
66090;BME280;53113;45.602;11.904;2022-09-09T12:11:50;100894.60;;;29.96;46.55
66090;BME280;53113;45.602;11.904;2022-09-09T12:17:21;100907.45;;;29.67;46.79
66090;BME280;53113;45.602;11.904;2022-09-09T12:20:11;100898.41;;;29.54;47.26
66090;BME280;53113;45.602;11.904;2022-09-09T12:28:18;100908.06;;;29.22;48.04
66090;BME280;53113;45.602;11.904;2022-09-09T12:33:43;100910.42;;;29.07;48.61
66090;BME280;53113;45.602;11.904;2022-09-09T12:36:30;100917.08;;;28.99;48.84
66090;BME280;53113;45.602;11.904;2022-09-09T12:39:10;100930.48;;;28.91;49.17
66090;BME280;53113;45.602;11.904;2022-09-09T12:41:40;100936.75;;;28.83;49.17
66090;BME280;53113;45.602;11.904;2022-09-09T12:44:09;100942.11;;;28.75;49.28
66090;BME280;53113;45.602;11.904;2022-09-09T12:46:39;100943.66;;;28.69;49.45
66090;BME280;53113;45.602;11.904;2022-09-09T12:49:32;100947.14;;;28.64;49.94
66090;BME280;53113;45.602;11.904;2022-09-09T12:52:08;100946.05;;;28.56;50.25
66090;BME280;53113;45.602;11.904;2022-09-09T12:54:44;100949.17;;;28.49;50.79
66090;BME280;53113;45.602;11.904;2022-09-09T12:57:16;100949.56;;;28.40;51.42
66090;BME280;53113;45.602;11.904;2022-09-09T12:59:44;100952.75;;;28.30;52.63
66090;BME280;53113;45.602;11.904;2022-09-09T13:02:22;100969.65;;;28.13;55.26
66090;BME280;53113;45.602;11.904;2022-09-09T13:04:48;100979.25;;;27.79;59.21
66090;BME280;53113;45.602;11.904;2022-09-09T13:07:16;100981.92;;;27.43;57.78
66090;BME280;53113;45.602;11.904;2022-09-09T13:09:44;100976.00;;;27.03;56.11
66090;BME280;53113;45.602;11.904;2022-09-09T13:12:15;100975.16;;;26.67;55.61
66090;BME280;53113;45.602;11.904;2022-09-09T13:14:48;100969.11;;;26.30;54.92
66090;BME280;53113;45.602;11.904;2022-09-09T13:17:24;100960.73;;;25.90;54.44
66090;BME280;53113;45.602;11.904;2022-09-09T13:19:51;100942.51;;;25.55;54.35
66090;BME280;53113;45.602;11.904;2022-09-09T13:24:46;100918.43;;;24.94;55.46
66090;BME280;53113;45.602;11.904;2022-09-09T13:27:38;100902.38;;;24.69;56.14
66090;BME280;53113;45.602;11.904;2022-09-09T13:30:22;100905.95;;;24.45;57.07
66090;BME280;53113;45.602;11.904;2022-09-09T13:35:29;100907.63;;;24.18;58.72
66090;BME280;53113;45.602;11.904;2022-09-09T13:37:55;100910.27;;;24.12;59.49
66090;BME280;53113;45.602;11.904;2022-09-09T13:40:23;100905.27;;;24.12;60.11
66090;BME280;53113;45.602;11.904;2022-09-09T13:42:55;100905.44;;;24.15;60.61
66090;BME280;53113;45.602;11.904;2022-09-09T13:45:24;100904.33;;;24.19;61.59
66090;BME280;53113;45.602;11.904;2022-09-09T13:47:53;100901.30;;;24.24;62.45
66090;BME280;53113;45.602;11.904;2022-09-09T13:50:29;100903.83;;;24.45;64.27
66090;BME280;53113;45.602;11.904;2022-09-09T13:52:57;100898.92;;;24.77;65.82
66090;BME280;53113;45.602;11.904;2022-09-09T13:55:27;100898.77;;;25.09;65.71
66090;BME280;53113;45.602;11.904;2022-09-09T13:58:00;100902.64;;;25.36;64.71
66090;BME280;53113;45.602;11.904;2022-09-09T14:00:29;100907.02;;;25.59;64.23
66090;BME280;53113;45.602;11.904;2022-09-09T14:02:56;100895.75;;;25.79;63.74
66090;BME280;53113;45.602;11.904;2022-09-09T14:05:22;100885.99;;;25.91;63.11
66090;BME280;53113;45.602;11.904;2022-09-09T14:07:49;100876.90;;;25.96;62.66
66090;BME280;53113;45.602;11.904;2022-09-09T14:10:15;100883.25;;;26.01;62.18
66090;BME280;53113;45.602;11.904;2022-09-09T14:12:40;100888.98;;;26.02;61.58
66090;BME280;53113;45.602;11.904;2022-09-09T14:15:07;100896.02;;;26.01;61.29
66090;BME280;53113;45.602;11.904;2022-09-09T14:17:34;100893.95;;;26.04;61.65
66090;BME280;53113;45.602;11.904;2022-09-09T14:20:03;100892.96;;;26.10;61.47
66090;BME280;53113;45.602;11.904;2022-09-09T14:22:31;100895.59;;;26.14;61.05
66090;BME280;53113;45.602;11.904;2022-09-09T14:24:56;100892.73;;;26.15;60.78
66090;BME280;53113;45.602;11.904;2022-09-09T14:27:23;100893.30;;;26.19;60.50
66090;BME280;53113;45.602;11.904;2022-09-09T14:29:48;100893.98;;;26.18;60.34
66090;BME280;53113;45.602;11.904;2022-09-09T14:32:14;100896.52;;;26.20;60.39
66090;BME280;53113;45.602;11.904;2022-09-09T14:34:40;100897.78;;;26.22;60.04
66090;BME280;53113;45.602;11.904;2022-09-09T14:37:05;100897.23;;;26.23;60.36
66090;BME280;53113;45.602;11.904;2022-09-09T14:39:31;100897.66;;;26.31;60.67
66090;BME280;53113;45.602;11.904;2022-09-09T14:41:57;100890.83;;;26.42;60.69
66090;BME280;53113;45.602;11.904;2022-09-09T14:44:23;100892.07;;;26.59;60.15
66090;BME280;53113;45.602;11.904;2022-09-09T14:46:49;100883.77;;;26.74;60.20
66090;BME280;53113;45.602;11.904;2022-09-09T14:49:15;100885.54;;;26.92;59.93
66090;BME280;53113;45.602;11.904;2022-09-09T14:51:41;100880.54;;;27.10;59.97
66090;BME280;53113;45.602;11.904;2022-09-09T14:54:07;100880.63;;;27.28;59.64
66090;BME280;53113;45.602;11.904;2022-09-09T14:56:33;100878.73;;;27.48;59.51
66090;BME280;53113;45.602;11.904;2022-09-09T14:59:00;100884.42;;;27.66;59.43
66090;BME280;53113;45.602;11.904;2022-09-09T15:01:28;100886.79;;;27.86;59.10
66090;BME280;53113;45.602;11.904;2022-09-09T15:04:02;100882.80;;;28.02;58.70
66090;BME280;53113;45.602;11.904;2022-09-09T15:06:30;100883.45;;;28.22;58.02